Time;durP1;ratioP1;P1;durP2;ratioP2;P2;SDS_P1;SDS_P2;PMS_P1;PMS_P2;Temp;Humidity;BMP_temperature;BMP_pressure;BME280_temperature;BME280_humidity;BME280_pressure;Samples;Min_cycle;Max_cycle;Signal;HPM_P1;HPM_P2
2024/03/23 00:02:24;;;;;;;0.45;0.45;;;9.00;99.90;;;;;;4455930;32;20508;-62
2024/03/23 00:04:50;;;;;;;12.30;0.70;;;9.00;99.90;;;;;;4456106;32;20081;-63
2024/03/23 00:07:17;;;;;;;0.73;0.73;;;9.10;99.90;;;;;;4456666;32;20080;-62
2024/03/23 00:09:43;;;;;;;0.30;0.30;;;9.00;99.90;;;;;;4454852;32;20097;-63
2024/03/23 00:12:11;;;;;;;0.22;0.22;;;9.10;99.90;;;;;;4457125;32;20069;-63
2024/03/23 00:14:37;;;;;;;0.50;0.50;;;9.00;99.90;;;;;;4456605;32;20068;-65
2024/03/23 00:17:04;;;;;;;0.30;0.30;;;9.00;99.90;;;;;;4457431;32;20072;-62
2024/03/23 00:19:30;;;;;;;0.70;0.70;;;9.00;99.90;;;;;;4455215;32;20174;-64
2024/03/23 00:21:57;;;;;;;3.33;1.98;;;9.00;99.90;;;;;;4455683;32;20174;-62
2024/03/23 00:24:23;;;;;;;0.30;0.30;;;9.00;99.90;;;;;;4455714;32;20076;-61
2024/03/23 00:26:50;;;;;;;6.60;1.37;;;8.90;99.90;;;;;;4456962;32;20093;-63
2024/03/23 00:29:16;;;;;;;0.28;0.28;;;8.90;99.90;;;;;;4457732;32;20065;-63
2024/03/23 00:31:43;;;;;;;0.80;0.80;;;8.90;99.90;;;;;;4456443;32;20126;-62
2024/03/23 00:34:09;;;;;;;7.03;1.05;;;8.90;99.90;;;;;;4455670;32;20131;-63
2024/03/23 00:36:35;;;;;;;2.80;0.80;;;8.90;99.90;;;;;;4457617;32;20072;-62
2024/03/23 00:39:02;;;;;;;0.70;0.70;;;8.90;99.90;;;;;;4456488;32;20089;-62
2024/03/23 00:41:29;;;;;;;0.35;0.35;;;8.80;99.90;;;;;;4454975;32;20139;-66
2024/03/23 00:43:55;;;;;;;9.50;1.12;;;8.80;99.90;;;;;;4455968;32;20075;-65
2024/03/23 00:46:22;;;;;;;0.55;0.47;;;8.80;99.90;;;;;;4456519;32;20465;-66
2024/03/23 00:48:48;;;;;;;0.80;0.80;;;8.70;99.90;;;;;;4456189;32;20073;-66
2024/03/23 00:51:14;;;;;;;0.52;0.47;;;8.70;99.90;;;;;;4454345;32;20065;-66
2024/03/23 00:53:40;;;;;;;0.50;0.50;;;8.70;99.90;;;;;;4455286;32;20105;-65
2024/03/23 00:56:05;;;;;;;1.35;0.93;;;8.70;99.90;;;;;;4449705;32;20487;-66
2024/03/23 00:58:31;;;;;;;0.30;0.30;;;8.80;99.90;;;;;;4454873;32;20111;-66
2024/03/23 01:00:56;;;;;;;3.50;1.65;;;8.80;99.90;;;;;;4454361;32;20414;-66
2024/03/23 01:03:22;;;;;;;8.85;0.93;;;8.80;99.90;;;;;;4456114;32;20101;-67
2024/03/23 01:05:48;;;;;;;0.52;0.52;;;8.80;99.90;;;;;;4447843;32;20139;-67
2024/03/23 01:08:14;;;;;;;1.23;1.12;;;8.80;99.90;;;;;;4457077;32;20096;-66
2024/03/23 01:10:39;;;;;;;1.70;0.52;;;8.80;99.90;;;;;;4456987;32;20477;-62
2024/03/23 01:13:05;;;;;;;0.75;0.70;;;8.80;99.90;;;;;;4455311;32;20072;-65
2024/03/23 01:15:30;;;;;;;0.30;0.30;;;8.80;99.90;;;;;;4456454;32;20536;-63
2024/03/23 01:17:56;;;;;;;6.47;2.40;;;8.80;99.90;;;;;;4453853;32;20191;-63
2024/03/23 01:20:21;;;;;;;2.28;1.05;;;8.70;99.90;;;;;;4454336;32;20085;-63
2024/03/23 01:22:47;;;;;;;0.82;0.82;;;8.70;99.90;;;;;;4456892;32;20103;-65
2024/03/23 01:25:12;;;;;;;0.40;0.40;;;8.70;99.90;;;;;;4455455;32;20646;-63
2024/03/23 01:27:38;;;;;;;4.20;1.77;;;8.60;99.90;;;;;;4456198;32;20088;-65
2024/03/23 01:30:03;;;;;;;3.65;1.42;;;8.60;99.90;;;;;;4453832;32;20532;-63
2024/03/23 01:32:29;;;;;;;1.83;1.02;;;8.50;99.90;;;;;;4456746;32;20057;-64
2024/03/23 01:34:54;;;;;;;9.75;1.15;;;8.50;99.90;;;;;;4456636;32;20136;-63
2024/03/23 01:37:20;;;;;;;7.12;1.70;;;8.40;99.90;;;;;;4454752;32;20543;-64
2024/03/23 01:39:45;;;;;;;2.08;1.35;;;8.40;99.90;;;;;;4454439;32;20092;-65
2024/03/23 01:42:11;;;;;;;1.65;1.10;;;8.40;99.90;;;;;;4451066;32;20092;-62
2024/03/23 01:44:37;;;;;;;1.25;1.15;;;8.50;99.90;;;;;;4455439;32;20114;-65
2024/03/23 01:47:03;;;;;;;1.48;1.17;;;8.60;99.90;;;;;;4454912;32;20215;-63
2024/03/23 01:49:29;;;;;;;0.75;0.75;;;8.60;99.90;;;;;;4454797;32;20103;-63
2024/03/23 01:51:55;;;;;;;0.43;0.43;;;8.70;99.90;;;;;;4454513;32;20084;-64
2024/03/23 01:54:21;;;;;;;2.03;1.08;;;8.80;99.90;;;;;;4456017;32;20115;-64
2024/03/23 01:56:47;;;;;;;0.62;0.62;;;8.80;99.90;;;;;;4455334;32;20134;-64
2024/03/23 01:59:13;;;;;;;0.28;0.28;;;8.80;99.90;;;;;;4454925;32;20069;-64
2024/03/23 02:01:38;;;;;;;0.98;0.68;;;8.80;99.90;;;;;;4455576;32;20130;-63
2024/03/23 02:04:04;;;;;;;2.17;1.37;;;8.80;99.90;;;;;;4454772;32;20434;-63
2024/03/23 02:06:30;;;;;;;0.50;0.50;;;8.80;99.90;;;;;;4453652;32;20084;-63
2024/03/23 02:08:56;;;;;;;0.30;0.30;;;8.80;99.90;;;;;;4448108;32;20583;-63
2024/03/23 02:11:22;;;;;;;0.62;0.62;;;8.80;99.90;;;;;;4453243;32;20076;-65
2024/03/23 02:13:47;;;;;;;5.12;1.20;;;8.70;99.90;;;;;;4444776;32;20406;-63
2024/03/23 02:16:13;;;;;;;0.43;0.43;;;8.70;99.90;;;;;;4455230;32;20061;-62
2024/03/23 02:18:39;;;;;;;0.45;0.45;;;8.70;99.90;;;;;;4454516;32;20525;-63
2024/03/23 02:21:05;;;;;;;0.68;0.68;;;8.60;99.90;;;;;;4456514;32;20622;-64
2024/03/23 02:23:31;;;;;;;0.70;0.70;;;8.60;99.90;;;;;;4454944;32;20068;-64
2024/03/23 02:25:56;;;;;;;2.85;0.95;;;8.60;99.90;;;;;;4448175;32;20135;-64
2024/03/23 02:28:23;;;;;;;0.62;0.62;;;8.60;99.90;;;;;;4452773;32;20057;-64
2024/03/23 02:30:49;;;;;;;21.45;1.02;;;8.70;99.90;;;;;;4453963;32;20117;-64
2024/03/23 02:33:15;;;;;;;0.40;0.40;;;8.60;99.90;;;;;;4446081;32;20500;-64
2024/03/23 02:35:41;;;;;;;4.07;1.37;;;8.70;99.90;;;;;;4456062;32;20077;-64
2024/03/23 02:38:06;;;;;;;0.98;0.62;;;8.60;99.90;;;;;;4454471;32;20061;-64
2024/03/23 02:40:32;;;;;;;0.30;0.30;;;8.70;99.90;;;;;;4456244;32;20157;-64
2024/03/23 02:42:57;;;;;;;0.77;0.77;;;8.70;99.90;;;;;;4458061;32;20072;-64
2024/03/23 02:45:24;;;;;;;16.15;0.80;;;8.70;99.90;;;;;;4458279;32;20077;-64
2024/03/23 02:47:51;;;;;;;0.40;0.40;;;8.80;99.90;;;;;;4456060;32;20093;-64
2024/03/23 02:50:18;;;;;;;0.47;0.47;;;8.90;99.90;;;;;;4456263;32;20091;-64
2024/03/23 02:52:44;;;;;;;0.52;0.52;;;8.90;99.90;;;;;;4457063;32;20097;-64
2024/03/23 02:55:10;;;;;;;3.15;1.15;;;8.80;99.90;;;;;;4457078;32;20081;-64
2024/03/23 02:57:35;;;;;;;0.30;0.30;;;8.80;99.90;;;;;;4455866;32;20123;-64
2024/03/23 03:00:01;;;;;;;29.42;0.55;;;8.70;99.90;;;;;;4455906;32;20076;-64
2024/03/23 03:02:26;;;;;;;0.43;0.43;;;8.60;99.90;;;;;;4457714;32;20072;-64
2024/03/23 03:04:52;;;;;;;0.28;0.28;;;8.50;99.90;;;;;;4457664;32;20513;-64
2024/03/23 03:07:17;;;;;;;0.50;0.50;;;8.50;99.90;;;;;;4456915;32;20065;-64
2024/03/23 03:09:42;;;;;;;0.40;0.40;;;8.50;99.90;;;;;;4458298;32;20118;-64
2024/03/23 03:12:08;;;;;;;0.30;0.30;;;8.60;99.90;;;;;;4457091;32;20072;-65
2024/03/23 03:14:34;;;;;;;0.68;0.68;;;8.60;99.90;;;;;;4450719;32;20077;-65
2024/03/23 03:17:00;;;;;;;0.50;0.50;;;8.60;99.90;;;;;;4456696;32;20068;-65
2024/03/23 03:19:25;;;;;;;0.32;0.32;;;8.60;99.90;;;;;;4450953;32;20121;-65
2024/03/23 03:21:51;;;;;;;0.50;0.50;;;8.60;99.90;;;;;;4455603;32;20149;-65
2024/03/23 03:24:16;;;;;;;0.40;0.40;;;8.50;99.90;;;;;;4456736;32;20121;-65
2024/03/23 03:26:42;;;;;;;2.92;0.68;;;8.50;99.90;;;;;;4455743;32;20123;-65
2024/03/23 03:29:08;;;;;;;3.33;0.93;;;8.50;99.90;;;;;;4456007;32;20084;-66
2024/03/23 03:31:33;;;;;;;0.28;0.28;;;8.40;99.90;;;;;;4458067;32;20463;-66
2024/03/23 03:33:58;;;;;;;0.57;0.57;;;8.40;99.90;;;;;;4457515;32;20125;-66
2024/03/23 03:36:24;;;;;;;0.20;0.20;;;8.40;99.90;;;;;;4455888;32;20065;-66
2024/03/23 03:38:50;;;;;;;0.62;0.50;;;8.40;99.90;;;;;;4456326;32;20559;-67
2024/03/23 03:41:16;;;;;;;6.05;1.60;;;8.30;99.90;;;;;;4454475;32;20138;-62
2024/03/23 03:43:41;;;;;;;0.60;0.60;;;8.40;99.90;;;;;;4458120;32;20069;-63
2024/03/23 03:46:08;;;;;;;0.80;0.80;;;8.40;99.90;;;;;;4457076;32;20536;-63
2024/03/23 03:48:34;;;;;;;0.98;0.80;;;8.40;99.90;;;;;;4450935;32;20670;-62
2024/03/23 03:50:59;;;;;;;2.30;0.55;;;8.40;99.90;;;;;;4456463;32;20076;-64
2024/03/23 03:53:26;;;;;;;8.40;1.50;;;8.50;99.90;;;;;;4455277;32;20582;-64
2024/03/23 03:55:51;;;;;;;0.30;0.30;;;8.30;99.90;;;;;;4455035;32;20065;-64
2024/03/23 03:58:17;;;;;;;0.37;0.37;;;8.30;99.90;;;;;;4455860;32;20060;-65
2024/03/23 04:00:42;;;;;;;0.35;0.35;;;8.20;99.90;;;;;;4453456;32;20076;-64
2024/03/23 04:03:08;;;;;;;0.40;0.40;;;8.30;99.90;;;;;;4457764;32;20064;-64
2024/03/23 04:05:33;;;;;;;0.52;0.52;;;8.20;99.90;;;;;;4456055;32;20814;-64
2024/03/23 04:07:59;;;;;;;1.27;0.65;;;8.20;99.90;;;;;;4455305;32;20076;-64
2024/03/23 04:10:24;;;;;;;0.98;0.55;;;8.10;99.90;;;;;;4454449;32;20777;-65
2024/03/23 04:12:50;;;;;;;1.85;0.65;;;8.10;99.90;;;;;;4454879;32;20088;-64
2024/03/23 04:15:16;;;;;;;1.85;1.08;;;8.10;99.90;;;;;;4454637;32;20080;-65
2024/03/23 04:17:42;;;;;;;0.30;0.30;;;8.00;99.90;;;;;;4455469;32;20456;-64
2024/03/23 04:20:10;;;;;;;0.20;0.20;;;8.00;99.90;;;;;;4454748;32;20072;-63
2024/03/23 04:22:37;;;;;;;0.52;0.52;;;7.90;99.90;;;;;;4448844;32;20073;-63
2024/03/23 04:25:06;;;;;;;1.65;1.10;;;8.00;99.90;;;;;;4456679;32;20525;-62
2024/03/23 04:27:32;;;;;;;0.28;0.28;;;8.00;99.90;;;;;;4454956;32;20167;-64
2024/03/23 04:30:00;;;;;;;2.10;0.70;;;8.10;99.90;;;;;;4453586;32;20253;-65
2024/03/23 04:32:26;;;;;;;2.08;1.60;;;8.00;99.90;;;;;;4454975;32;20069;-63
2024/03/23 04:34:52;;;;;;;6.60;1.00;;;7.90;99.90;;;;;;4455400;32;20077;-64
2024/03/23 04:37:17;;;;;;;2.22;0.62;;;7.90;99.90;;;;;;4455468;32;20084;-63
2024/03/23 04:39:43;;;;;;;0.62;0.62;;;7.80;99.90;;;;;;4454293;32;20072;-65
2024/03/23 04:42:08;;;;;;;0.30;0.30;;;7.70;99.90;;;;;;4454400;32;20129;-66
2024/03/23 04:44:34;;;;;;;0.20;0.20;;;7.70;99.90;;;;;;4455499;32;20057;-66
2024/03/23 04:47:00;;;;;;;8.68;1.05;;;7.80;99.90;;;;;;4455488;32;20060;-66
2024/03/23 04:49:26;;;;;;;0.60;0.60;;;7.70;99.90;;;;;;4455611;32;20122;-65
2024/03/23 04:51:51;;;;;;;0.35;0.35;;;7.70;99.90;;;;;;4454701;32;20081;-66
2024/03/23 04:54:17;;;;;;;0.30;0.30;;;7.60;99.90;;;;;;4456285;32;20528;-65
2024/03/23 04:56:43;;;;;;;0.35;0.35;;;7.60;99.90;;;;;;4455785;32;20068;-65
2024/03/23 04:59:09;;;;;;;1.23;0.45;;;7.60;99.90;;;;;;4456091;32;20126;-65
2024/03/23 05:01:35;;;;;;;0.35;0.35;;;7.60;99.90;;;;;;4454978;32;20069;-63
2024/03/23 05:04:01;;;;;;;2.83;0.50;;;7.60;99.90;;;;;;4456127;32;20532;-65
2024/03/23 05:06:27;;;;;;;0.30;0.30;;;7.60;99.90;;;;;;4456456;32;20065;-63
2024/03/23 05:08:52;;;;;;;0.60;0.60;;;7.60;99.90;;;;;;4445719;32;20073;-65
2024/03/23 05:11:18;;;;;;;3.17;0.62;;;7.60;99.90;;;;;;4458258;32;20093;-65
2024/03/23 05:13:44;;;;;;;2.28;0.90;;;7.60;99.90;;;;;;4455466;32;20084;-64
2024/03/23 05:16:09;;;;;;;0.35;0.35;;;7.60;99.90;;;;;;4457035;32;20092;-62
2024/03/23 05:18:35;;;;;;;0.40;0.40;;;7.60;99.90;;;;;;4455710;32;20076;-64
2024/03/23 05:21:01;;;;;;;0.30;0.30;;;7.60;99.90;;;;;;4455848;32;20073;-65
2024/03/23 05:23:28;;;;;;;3.65;0.85;;;7.70;99.90;;;;;;4456396;32;20603;-65
2024/03/23 05:25:54;;;;;;;0.30;0.30;;;7.70;99.90;;;;;;4456897;32;20579;-65
2024/03/23 05:28:20;;;;;;;0.62;0.62;;;7.60;99.90;;;;;;4455658;32;20057;-64
2024/03/23 05:30:54;;;;;;;2.80;0.77;;;7.60;99.90;;;;;;4455202;32;20061;-63
2024/03/23 05:33:20;;;;;;;0.50;0.50;;;7.60;99.90;;;;;;4446258;32;20077;-63
2024/03/23 05:35:47;;;;;;;0.30;0.30;;;7.50;99.90;;;;;;4433302;32;20131;-63
2024/03/23 05:38:13;;;;;;;1.80;0.82;;;7.30;99.90;;;;;;4454412;32;20064;-64
2024/03/23 05:40:40;;;;;;;0.30;0.30;;;7.30;99.90;;;;;;4454347;32;20076;-63
2024/03/23 05:43:06;;;;;;;0.30;0.30;;;7.30;99.90;;;;;;4450257;32;20600;-63
2024/03/23 05:45:31;;;;;;;0.70;0.28;;;7.20;99.90;;;;;;4457037;32;20156;-64
2024/03/23 05:47:57;;;;;;;0.70;0.70;;;7.20;99.90;;;;;;4454471;32;20135;-64
2024/03/23 05:50:23;;;;;;;0.30;0.30;;;7.20;99.90;;;;;;4454378;32;20093;-63
2024/03/23 05:52:50;;;;;;;0.52;0.52;;;7.20;99.90;;;;;;4446846;32;20122;-64
2024/03/23 05:55:15;;;;;;;0.88;0.88;;;7.30;99.90;;;;;;4452999;32;20081;-64
2024/03/23 05:57:41;;;;;;;0.30;0.30;;;7.30;99.90;;;;;;4454748;32;20072;-65
2024/03/23 06:02:35;;;;;;;0.73;0.73;;;7.40;99.90;;;;;;4454891;32;20215;-63
2024/03/23 06:05:01;;;;;;;0.30;0.30;;;7.40;99.90;;;;;;4455332;32;20156;-63
2024/03/23 06:07:27;;;;;;;0.30;0.30;;;7.40;99.90;;;;;;4454150;32;20544;-63
2024/03/23 06:09:53;;;;;;;0.30;0.30;;;7.30;99.90;;;;;;4453721;32;20180;-63
2024/03/23 06:12:18;;;;;;;0.50;0.50;;;7.30;99.90;;;;;;4456159;32;20418;-66
2024/03/23 06:14:44;;;;;;;0.30;0.30;;;7.30;99.90;;;;;;4445530;32;20097;-63
2024/03/23 06:17:09;;;;;;;3.00;0.85;;;7.40;99.90;;;;;;4453589;32;20077;-63
2024/03/23 06:19:35;;;;;;;1.55;1.23;;;7.40;99.90;;;;;;4453095;32;20109;-62
2024/03/23 06:22:00;;;;;;;0.40;0.40;;;7.40;99.90;;;;;;4454340;32;20068;-65
2024/03/23 06:24:26;;;;;;;30.67;0.98;;;7.40;99.90;;;;;;4445133;32;21085;-66
2024/03/23 06:26:51;;;;;;;0.45;0.40;;;7.40;99.90;;;;;;4454384;32;20057;-64
2024/03/23 06:29:17;;;;;;;0.30;0.30;;;7.50;99.90;;;;;;4453081;32;20138;-64
2024/03/23 06:31:42;;;;;;;0.60;0.60;;;7.50;99.90;;;;;;4445343;32;20068;-63
2024/03/23 06:34:08;;;;;;;0.47;0.47;;;7.50;99.90;;;;;;4456030;32;20072;-64
2024/03/23 06:36:33;;;;;;;0.30;0.30;;;7.50;99.90;;;;;;4452219;32;20093;-64
2024/03/23 06:38:58;;;;;;;0.40;0.40;;;7.50;99.90;;;;;;4453634;32;20060;-65
2024/03/23 06:41:25;;;;;;;0.40;0.40;;;7.50;99.90;;;;;;4452000;32;20076;-64
2024/03/23 06:43:50;;;;;;;0.40;0.40;;;7.50;99.90;;;;;;4454370;32;20733;-65
2024/03/23 06:46:16;;;;;;;0.30;0.30;;;7.50;99.90;;;;;;4454234;32;20057;-64
2024/03/23 06:48:41;;;;;;;0.80;0.50;;;7.50;99.90;;;;;;4453790;32;20112;-65
2024/03/23 06:51:07;;;;;;;0.80;0.65;;;7.50;99.90;;;;;;4454506;32;20081;-64
2024/03/23 06:53:33;;;;;;;0.32;0.32;;;7.70;99.90;;;;;;4454496;32;20883;-64
2024/03/23 06:55:58;;;;;;;4.18;0.60;;;7.70;99.90;;;;;;4454884;32;20135;-64
2024/03/23 06:58:25;;;;;;;0.32;0.32;;;7.70;99.90;;;;;;4455526;32;20115;-64
2024/03/23 07:00:50;;;;;;;0.47;0.47;;;7.70;99.90;;;;;;4445757;32;20069;-64
2024/03/23 07:03:17;;;;;;;0.20;0.20;;;7.60;99.90;;;;;;4454138;32;20095;-65
2024/03/23 07:05:43;;;;;;;0.30;0.30;;;7.60;99.90;;;;;;4455116;32;20081;-63
2024/03/23 07:08:08;;;;;;;0.30;0.30;;;7.60;99.90;;;;;;4455519;32;20061;-64
2024/03/23 07:10:35;;;;;;;0.30;0.30;;;7.60;99.90;;;;;;4445923;32;20084;-65
2024/03/23 07:13:00;;;;;;;0.30;0.30;;;7.60;99.90;;;;;;4448142;32;20108;-65
2024/03/23 07:15:26;;;;;;;0.50;0.50;;;7.70;99.90;;;;;;4452711;32;20076;-64
2024/03/23 07:17:51;;;;;;;0.30;0.30;;;7.70;99.90;;;;;;4453810;32;20080;-65
2024/03/23 07:20:17;;;;;;;0.30;0.30;;;7.70;99.90;;;;;;4453403;32;20245;-65
2024/03/23 07:22:45;;;;;;;0.30;0.30;;;7.70;99.90;;;;;;4454822;32;20122;-64
2024/03/23 07:25:10;;;;;;;1.85;0.75;;;7.70;99.90;;;;;;4456122;32;20076;-64
2024/03/23 07:27:35;;;;;;;0.32;0.32;;;7.60;99.90;;;;;;4457648;32;20488;-64
2024/03/23 07:30:01;;;;;;;0.35;0.32;;;7.60;99.90;;;;;;4456628;32;20138;-63
2024/03/23 07:32:27;;;;;;;0.55;0.55;;;7.70;99.90;;;;;;4456208;32;20069;-63
2024/03/23 07:34:53;;;;;;;0.28;0.28;;;7.70;99.90;;;;;;4456578;32;20068;-63
2024/03/23 07:37:18;;;;;;;0.28;0.28;;;7.80;99.90;;;;;;4456983;32;20073;-64
2024/03/23 07:39:43;;;;;;;0.30;0.30;;;7.80;99.90;;;;;;4456815;32;20212;-64
2024/03/23 07:42:09;;;;;;;0.30;0.30;;;7.90;99.90;;;;;;4455005;32;20077;-64
2024/03/23 07:44:34;;;;;;;2.62;1.50;;;7.90;99.90;;;;;;4457092;32;20092;-64
2024/03/23 07:47:01;;;;;;;1.58;1.12;;;8.00;99.90;;;;;;4456341;32;20532;-64
2024/03/23 07:49:27;;;;;;;7.03;0.60;;;8.00;99.90;;;;;;4457913;32;20072;-64
2024/03/23 07:51:52;;;;;;;0.95;0.93;;;8.00;99.90;;;;;;4455991;32;20488;-64
2024/03/23 07:54:18;;;;;;;0.75;0.73;;;7.90;99.90;;;;;;4454248;32;20150;-65
2024/03/23 07:56:44;;;;;;;0.30;0.30;;;7.70;99.90;;;;;;4455826;32;20085;-63
2024/03/23 07:59:09;;;;;;;0.77;0.77;;;7.80;99.90;;;;;;4456490;32;20069;-63
2024/03/23 08:01:35;;;;;;;0.30;0.30;;;7.80;99.90;;;;;;4458018;32;20086;-63
2024/03/23 08:04:01;;;;;;;0.40;0.40;;;7.70;99.90;;;;;;4456988;32;20072;-63
2024/03/23 08:06:26;;;;;;;0.32;0.32;;;7.70;99.90;;;;;;4458012;32;20081;-65
2024/03/23 08:09:02;;;;;;;0.40;0.40;;;7.70;99.90;;;;;;4456690;32;20128;-64
2024/03/23 08:11:29;;;;;;;0.55;0.52;;;7.60;99.90;;;;;;4448847;32;20080;-64
2024/03/23 08:13:55;;;;;;;0.30;0.30;;;7.80;99.90;;;;;;4456512;32;20096;-64
2024/03/23 08:16:22;;;;;;;0.55;0.55;;;7.70;99.90;;;;;;4446858;32;20370;-64
2024/03/23 08:18:47;;;;;;;0.50;0.50;;;7.70;99.90;;;;;;4455798;32;20509;-64
2024/03/23 08:21:13;;;;;;;0.50;0.50;;;7.60;99.90;;;;;;4455649;32;20061;-64
2024/03/23 08:23:39;;;;;;;0.30;0.30;;;7.60;99.90;;;;;;4456447;32;20076;-63
2024/03/23 08:26:11;;;;;;;5.18;2.05;;;7.50;99.90;;;;;;4456516;32;20072;-64
2024/03/23 08:28:37;;;;;;;0.30;0.30;;;7.60;99.90;;;;;;4454690;32;20594;-64
2024/03/23 08:31:11;;;;;;;0.30;0.30;;;7.70;99.90;;;;;;4447091;32;20745;-64
2024/03/23 08:33:38;;;;;;;0.40;0.40;;;7.60;99.90;;;;;;4441069;32;20521;-64
2024/03/23 08:36:06;;;;;;;0.32;0.32;;;7.40;99.90;;;;;;4456510;32;20076;-64
2024/03/23 08:38:31;;;;;;;4.47;1.00;;;7.40;99.90;;;;;;4455462;32;20652;-64
2024/03/23 08:40:58;;;;;;;1.65;0.60;;;7.40;99.90;;;;;;4446412;32;20080;-63
2024/03/23 08:43:24;;;;;;;0.30;0.30;;;7.30;99.90;;;;;;4456142;32;20061;-64
2024/03/23 08:45:50;;;;;;;0.30;0.30;;;7.30;99.90;;;;;;4447608;32;20077;-64
2024/03/23 08:48:15;;;;;;;0.30;0.30;;;7.30;99.90;;;;;;4454577;32;20105;-64
2024/03/23 08:50:41;;;;;;;0.40;0.40;;;7.30;99.90;;;;;;4453340;32;20510;-64
2024/03/23 08:53:06;;;;;;;0.30;0.30;;;7.30;99.90;;;;;;4454900;32;20150;-64
2024/03/23 08:55:32;;;;;;;0.47;0.47;;;7.20;99.90;;;;;;4454415;32;20757;-64
2024/03/23 08:57:57;;;;;;;0.40;0.40;;;7.10;99.90;;;;;;4456577;32;20072;-64
2024/03/23 09:00:23;;;;;;;0.30;0.30;;;7.00;99.90;;;;;;4455643;32;20084;-64
2024/03/23 09:02:50;;;;;;;0.40;0.40;;;6.90;99.90;;;;;;4457068;32;20068;-64
2024/03/23 09:05:15;;;;;;;0.35;0.35;;;6.90;99.90;;;;;;4441586;32;20065;-64
2024/03/23 09:07:41;;;;;;;0.30;0.30;;;7.00;99.90;;;;;;4456206;32;20068;-64
2024/03/23 09:10:07;;;;;;;3.20;1.05;;;6.90;99.90;;;;;;4454342;32;20073;-64
2024/03/23 09:12:33;;;;;;;0.30;0.30;;;6.90;99.90;;;;;;4456119;32;20073;-63
2024/03/23 09:14:58;;;;;;;0.22;0.22;;;7.00;99.90;;;;;;4456610;32;20060;-63
2024/03/23 09:17:24;;;;;;;0.30;0.30;;;6.90;99.90;;;;;;4455153;32;20163;-64
2024/03/23 09:19:49;;;;;;;0.30;0.30;;;6.80;99.90;;;;;;4455658;32;20235;-64
2024/03/23 09:22:14;;;;;;;0.50;0.50;;;6.80;99.90;;;;;;4455683;32;20192;-64
2024/03/23 09:24:40;;;;;;;0.40;0.40;;;6.70;99.90;;;;;;4455288;32;20121;-64
2024/03/23 09:27:06;;;;;;;0.65;0.65;;;6.70;99.90;;;;;;4455600;32;20646;-64
2024/03/23 09:29:31;;;;;;;0.50;0.50;;;6.70;99.90;;;;;;4454833;32;20069;-64
2024/03/23 09:31:57;;;;;;;0.62;0.62;;;6.70;99.90;;;;;;4447567;32;20093;-63
2024/03/23 09:34:22;;;;;;;0.30;0.30;;;6.70;99.90;;;;;;4455397;32;20149;-64
2024/03/23 09:36:52;;;;;;;0.65;0.65;;;6.60;99.90;;;;;;4453380;32;20176;-64
2024/03/23 09:39:19;;;;;;;0.30;0.30;;;6.60;99.90;;;;;;4455024;32;20111;-64
2024/03/23 09:41:45;;;;;;;0.25;0.25;;;6.70;99.90;;;;;;4452166;32;20064;-63
2024/03/23 09:44:10;;;;;;;0.68;0.65;;;6.80;99.90;;;;;;4453771;32;20084;-63
2024/03/23 09:46:36;;;;;;;0.22;0.22;;;6.70;99.90;;;;;;4453214;32;20146;-65
2024/03/23 09:49:04;;;;;;;0.25;0.25;;;6.50;99.90;;;;;;4452949;32;20076;-64
2024/03/23 09:51:30;;;;;;;0.68;0.60;;;6.50;99.90;;;;;;4443901;32;20650;-64
2024/03/23 09:53:57;;;;;;;0.40;0.40;;;6.50;99.90;;;;;;4438472;32;20061;-64
2024/03/23 09:56:23;;;;;;;0.45;0.45;;;6.50;99.90;;;;;;4453564;32;20114;-63
2024/03/23 09:58:49;;;;;;;0.30;0.30;;;6.50;99.90;;;;;;4453487;32;20556;-64
2024/03/23 10:01:15;;;;;;;0.60;0.60;;;6.50;99.90;;;;;;4455150;32;20085;-63
2024/03/23 10:03:44;;;;;;;0.43;0.43;;;6.40;99.90;;;;;;4454936;32;20065;-64
2024/03/23 10:06:10;;;;;;;0.30;0.30;;;6.40;99.90;;;;;;4455847;32;20072;-64
2024/03/23 10:08:36;;;;;;;0.30;0.30;;;6.40;99.90;;;;;;4454418;32;20522;-64
2024/03/23 10:11:17;;;;;;;2.85;0.93;;;6.30;99.90;;;;;;4453323;32;20077;-63
2024/03/23 10:13:43;;;;;;;0.30;0.30;;;6.20;99.90;;;;;;4454065;32;20132;-63
2024/03/23 10:16:10;;;;;;;0.28;0.28;;;6.30;99.90;;;;;;4455298;32;20097;-63
2024/03/23 10:18:39;;;;;;;0.30;0.30;;;6.30;99.90;;;;;;4453613;32;20085;-65
2024/03/23 10:21:10;;;;;;;0.30;0.30;;;6.40;99.90;;;;;;4454697;32;20107;-64
2024/03/23 10:23:37;;;;;;;0.20;0.20;;;6.40;99.90;;;;;;4453721;32;20089;-65
2024/03/23 10:26:21;;;;;;;0.30;0.30;;;6.20;99.90;;;;;;4453752;32;20076;-63
2024/03/23 10:28:53;;;;;;;0.30;0.30;;;6.20;99.90;;;;;;4452183;32;20513;-63
2024/03/23 10:31:19;;;;;;;0.47;0.47;;;6.10;99.90;;;;;;4454236;32;20065;-63
2024/03/23 10:33:46;;;;;;;0.73;0.73;;;6.20;99.90;;;;;;4454910;32;20076;-62
2024/03/23 10:36:12;;;;;;;0.30;0.30;;;6.20;99.90;;;;;;4447420;32;20125;-63
2024/03/23 10:38:41;;;;;;;0.30;0.30;;;6.20;99.90;;;;;;4452858;32;20072;-64
2024/03/23 10:41:09;;;;;;;1.60;0.65;;;6.10;99.90;;;;;;4452311;32;20512;-65
2024/03/23 10:43:36;;;;;;;0.30;0.30;;;6.10;99.90;;;;;;4455430;32;20549;-65
2024/03/23 10:46:01;;;;;;;0.20;0.20;;;6.10;99.90;;;;;;4453850;32;20120;-65
2024/03/23 10:48:27;;;;;;;0.30;0.30;;;6.20;99.90;;;;;;4453752;32;20092;-66
2024/03/23 10:50:53;;;;;;;0.30;0.30;;;6.30;99.90;;;;;;4453451;32;20069;-65
2024/03/23 10:53:22;;;;;;;1.65;0.95;;;6.30;99.90;;;;;;4443919;32;20093;-65
2024/03/23 10:55:49;;;;;;;0.20;0.20;;;6.30;99.90;;;;;;4453759;32;20072;-65
2024/03/23 10:58:15;;;;;;;1.45;0.70;;;6.30;99.90;;;;;;4455208;32;20568;-65
2024/03/23 11:00:41;;;;;;;0.35;0.35;;;6.30;99.90;;;;;;4455501;32;20065;-66
2024/03/23 11:03:47;;;;;;;0.30;0.30;;;6.30;99.90;;;;;;4456305;32;20093;-65
2024/03/23 11:06:34;;;;;;;0.22;0.22;;;6.20;99.90;;;;;;4436270;32;20417;-65
2024/03/23 11:09:00;;;;;;;0.68;0.68;;;6.20;99.90;;;;;;4445409;32;20089;-66
2024/03/23 11:11:26;;;;;;;0.28;0.28;;;6.30;99.90;;;;;;4451965;32;20069;-65
2024/03/23 11:13:53;;;;;;;0.40;0.40;;;6.30;99.90;;;;;;4441892;32;20068;-66
2024/03/23 11:16:25;;;;;;;3.30;1.40;;;6.30;99.90;;;;;;4455964;32;21347;-67
2024/03/23 11:18:51;;;;;;;0.50;0.50;;;6.40;99.90;;;;;;4455604;32;20116;-65
2024/03/23 11:21:51;;;;;;;1.08;0.95;;;6.50;99.90;;;;;;4454058;32;20086;-65
2024/03/23 11:24:17;;;;;;;0.37;0.37;;;6.60;99.90;;;;;;4433574;32;20607;-65
2024/03/23 11:26:42;;;;;;;0.30;0.30;;;6.60;99.90;;;;;;4457355;32;20175;-65
2024/03/23 11:29:09;;;;;;;1.15;0.62;;;6.80;99.90;;;;;;4440545;32;20139;-65
2024/03/23 11:31:37;;;;;;;1.10;1.00;;;6.80;99.90;;;;;;4439030;32;20080;-65
2024/03/23 11:34:05;;;;;;;0.30;0.30;;;6.90;99.90;;;;;;4455285;32;20076;-65
2024/03/23 11:36:31;;;;;;;1.35;0.62;;;6.90;99.90;;;;;;4456174;32;20085;-65
2024/03/23 11:38:56;;;;;;;0.30;0.30;;;6.80;99.90;;;;;;4457050;32;20084;-64
2024/03/23 11:41:22;;;;;;;0.30;0.30;;;6.70;99.90;;;;;;4455070;32;20068;-65
2024/03/23 11:43:47;;;;;;;2.72;1.85;;;6.70;99.90;;;;;;4456784;32;20077;-63
2024/03/23 11:46:22;;;;;;;0.30;0.30;;;6.90;99.90;;;;;;4453319;32;20656;-65
2024/03/23 11:48:51;;;;;;;0.30;0.30;;;6.90;99.90;;;;;;4449386;32;20073;-64
2024/03/23 11:51:17;;;;;;;3.30;1.85;;;7.00;99.90;;;;;;4445624;32;20077;-65
2024/03/23 11:53:43;;;;;;;7.37;0.45;;;7.00;99.90;;;;;;4428584;32;99039;-65
2024/03/23 11:56:09;;;;;;;0.88;0.40;;;7.00;99.90;;;;;;4446474;32;20557;-65
2024/03/23 11:58:34;;;;;;;0.20;0.20;;;7.00;99.90;;;;;;4452883;32;20476;-65
2024/03/23 12:01:02;;;;;;;0.32;0.32;;;7.00;99.90;;;;;;4455597;32;20056;-64
2024/03/23 12:03:29;;;;;;;0.30;0.30;;;7.10;99.90;;;;;;4456163;32;20065;-64
2024/03/23 12:05:59;;;;;;;3.72;0.47;;;7.10;99.90;;;;;;4458202;32;20068;-63
2024/03/23 12:08:32;;;;;;;3.55;1.17;;;6.90;99.90;;;;;;4454095;32;20056;-63
2024/03/23 12:11:15;;;;;;;0.30;0.30;;;6.80;99.90;;;;;;4455220;32;20080;-63
2024/03/23 12:13:44;;;;;;;0.40;0.40;;;6.80;99.90;;;;;;4454676;32;20153;-64
2024/03/23 12:16:12;;;;;;;0.37;0.37;;;6.90;99.90;;;;;;4455768;32;20053;-63
2024/03/23 12:18:40;;;;;;;2.62;0.73;;;6.90;99.90;;;;;;4454360;32;20061;-62
2024/03/23 12:21:05;;;;;;;4.62;0.75;;;6.80;99.90;;;;;;4455448;32;20064;-62
2024/03/23 12:23:32;;;;;;;3.35;0.88;;;6.90;99.90;;;;;;4451522;32;20493;-64
2024/03/23 12:25:57;;;;;;;0.30;0.30;;;6.90;99.90;;;;;;4454860;32;20065;-65
2024/03/23 12:28:23;;;;;;;17.40;0.98;;;7.00;99.90;;;;;;4453915;32;20161;-63
2024/03/23 12:30:48;;;;;;;0.73;0.73;;;7.00;99.90;;;;;;4454714;32;20060;-64
2024/03/23 12:33:14;;;;;;;13.50;1.85;;;7.20;99.90;;;;;;4456307;32;20438;-64
2024/03/23 12:35:39;;;;;;;0.30;0.30;;;7.30;99.90;;;;;;4456611;32;20184;-64
2024/03/23 12:38:05;;;;;;;0.50;0.50;;;7.10;99.90;;;;;;4455219;32;20133;-64
2024/03/23 12:40:30;;;;;;;0.30;0.30;;;7.00;99.90;;;;;;4453420;32;21466;-64
2024/03/23 12:42:56;;;;;;;0.50;0.50;;;6.90;99.90;;;;;;4457092;32;20289;-64
2024/03/23 12:45:21;;;;;;;6.53;0.95;;;6.80;99.90;;;;;;4456490;32;20069;-65
2024/03/23 12:47:47;;;;;;;0.45;0.45;;;6.80;99.90;;;;;;4455195;32;20080;-64
2024/03/23 12:50:12;;;;;;;0.40;0.40;;;7.00;99.90;;;;;;4455603;32;20122;-64
2024/03/23 12:52:38;;;;;;;0.40;0.40;;;7.00;99.90;;;;;;4454360;32;20080;-64
2024/03/23 12:55:05;;;;;;;0.20;0.20;;;7.10;99.90;;;;;;4454100;32;20060;-64
2024/03/23 12:57:31;;;;;;;0.30;0.30;;;7.20;99.90;;;;;;4454418;32;20123;-64